sensor_id;sensor_type;location;lat;lon;timestamp;P1;durP1;ratioP1;P2;durP2;ratioP2
18580;SDS011;9420;50.876;7.012;2023-09-08T00:00:58;6.57;;;5.80;;
18580;SDS011;9420;50.876;7.012;2023-09-08T00:03:24;7.13;;;5.87;;
18580;SDS011;9420;50.876;7.012;2023-09-08T00:05:51;7.90;;;6.20;;
18580;SDS011;9420;50.876;7.012;2023-09-08T00:08:17;8.70;;;5.53;;
18580;SDS011;9420;50.876;7.012;2023-09-08T00:10:44;10.90;;;5.30;;
18580;SDS011;9420;50.876;7.012;2023-09-08T00:13:12;6.07;;;5.50;;
18580;SDS011;9420;50.876;7.012;2023-09-08T00:15:39;10.43;;;5.63;;
18580;SDS011;9420;50.876;7.012;2023-09-08T00:18:05;7.43;;;5.83;;
18580;SDS011;9420;50.876;7.012;2023-09-08T00:20:32;9.10;;;5.67;;
18580;SDS011;9420;50.876;7.012;2023-09-08T00:22:59;8.27;;;6.37;;
18580;SDS011;9420;50.876;7.012;2023-09-08T00:25:26;7.17;;;6.47;;
18580;SDS011;9420;50.876;7.012;2023-09-08T00:27:53;7.70;;;5.40;;
18580;SDS011;9420;50.876;7.012;2023-09-08T00:30:21;6.50;;;5.77;;
18580;SDS011;9420;50.876;7.012;2023-09-08T00:32:47;13.10;;;6.17;;
18580;SDS011;9420;50.876;7.012;2023-09-08T00:35:14;7.10;;;6.07;;
18580;SDS011;9420;50.876;7.012;2023-09-08T00:37:41;8.63;;;5.70;;
18580;SDS011;9420;50.876;7.012;2023-09-08T00:40:08;8.57;;;6.77;;
18580;SDS011;9420;50.876;7.012;2023-09-08T00:42:35;8.90;;;6.37;;
18580;SDS011;9420;50.876;7.012;2023-09-08T00:45:02;10.03;;;6.57;;
18580;SDS011;9420;50.876;7.012;2023-09-08T00:47:30;8.40;;;5.57;;
18580;SDS011;9420;50.876;7.012;2023-09-08T00:49:57;7.97;;;6.50;;
18580;SDS011;9420;50.876;7.012;2023-09-08T00:52:24;6.73;;;5.30;;
18580;SDS011;9420;50.876;7.012;2023-09-08T00:54:56;11.40;;;5.67;;
18580;SDS011;9420;50.876;7.012;2023-09-08T00:57:22;6.90;;;5.90;;
18580;SDS011;9420;50.876;7.012;2023-09-08T00:59:49;6.93;;;5.57;;
18580;SDS011;9420;50.876;7.012;2023-09-08T01:02:16;7.47;;;5.43;;
18580;SDS011;9420;50.876;7.012;2023-09-08T01:04:44;8.60;;;6.60;;
18580;SDS011;9420;50.876;7.012;2023-09-08T01:07:11;7.07;;;5.97;;
18580;SDS011;9420;50.876;7.012;2023-09-08T01:09:39;11.30;;;5.57;;
18580;SDS011;9420;50.876;7.012;2023-09-08T01:12:07;8.33;;;5.97;;
18580;SDS011;9420;50.876;7.012;2023-09-08T01:14:34;5.93;;;4.87;;
18580;SDS011;9420;50.876;7.012;2023-09-08T01:17:01;5.67;;;5.07;;
18580;SDS011;9420;50.876;7.012;2023-09-08T01:19:27;6.53;;;5.47;;
18580;SDS011;9420;50.876;7.012;2023-09-08T01:22:02;8.03;;;5.37;;
18580;SDS011;9420;50.876;7.012;2023-09-08T01:27:45;6.17;;;5.57;;
18580;SDS011;9420;50.876;7.012;2023-09-08T01:30:16;14.23;;;6.13;;
18580;SDS011;9420;50.876;7.012;2023-09-08T01:32:43;8.17;;;5.67;;
18580;SDS011;9420;50.876;7.012;2023-09-08T01:35:12;6.70;;;5.37;;
18580;SDS011;9420;50.876;7.012;2023-09-08T01:37:39;7.20;;;5.40;;
18580;SDS011;9420;50.876;7.012;2023-09-08T01:40:07;8.03;;;6.20;;
18580;SDS011;9420;50.876;7.012;2023-09-08T01:42:36;9.10;;;5.67;;
18580;SDS011;9420;50.876;7.012;2023-09-08T01:45:03;7.50;;;5.53;;
18580;SDS011;9420;50.876;7.012;2023-09-08T01:47:32;9.03;;;5.57;;
18580;SDS011;9420;50.876;7.012;2023-09-08T01:49:59;6.73;;;5.03;;
18580;SDS011;9420;50.876;7.012;2023-09-08T01:52:26;6.97;;;5.37;;
18580;SDS011;9420;50.876;7.012;2023-09-08T01:54:53;8.60;;;5.10;;
18580;SDS011;9420;50.876;7.012;2023-09-08T01:57:20;6.30;;;5.07;;
18580;SDS011;9420;50.876;7.012;2023-09-08T01:59:48;10.00;;;6.23;;
18580;SDS011;9420;50.876;7.012;2023-09-08T02:02:15;7.03;;;6.17;;
18580;SDS011;9420;50.876;7.012;2023-09-08T02:04:42;7.50;;;5.83;;
18580;SDS011;9420;50.876;7.012;2023-09-08T02:07:08;7.63;;;5.10;;
18580;SDS011;9420;50.876;7.012;2023-09-08T02:09:36;7.50;;;6.13;;
18580;SDS011;9420;50.876;7.012;2023-09-08T02:12:04;7.53;;;6.00;;
18580;SDS011;9420;50.876;7.012;2023-09-08T02:14:31;8.43;;;5.37;;
18580;SDS011;9420;50.876;7.012;2023-09-08T02:16:59;6.00;;;5.33;;
18580;SDS011;9420;50.876;7.012;2023-09-08T02:19:27;7.50;;;5.73;;
18580;SDS011;9420;50.876;7.012;2023-09-08T02:21:53;8.57;;;6.23;;
18580;SDS011;9420;50.876;7.012;2023-09-08T02:24:20;6.97;;;6.00;;
18580;SDS011;9420;50.876;7.012;2023-09-08T02:26:47;6.47;;;5.63;;
18580;SDS011;9420;50.876;7.012;2023-09-08T02:29:13;10.13;;;6.40;;
18580;SDS011;9420;50.876;7.012;2023-09-08T02:31:40;6.30;;;5.70;;
18580;SDS011;9420;50.876;7.012;2023-09-08T02:34:08;6.17;;;5.57;;
18580;SDS011;9420;50.876;7.012;2023-09-08T02:36:36;6.67;;;6.03;;
18580;SDS011;9420;50.876;7.012;2023-09-08T02:39:03;7.90;;;5.93;;
18580;SDS011;9420;50.876;7.012;2023-09-08T02:41:32;10.13;;;5.53;;
18580;SDS011;9420;50.876;7.012;2023-09-08T02:43:58;7.80;;;5.47;;
18580;SDS011;9420;50.876;7.012;2023-09-08T02:46:25;6.30;;;5.63;;
18580;SDS011;9420;50.876;7.012;2023-09-08T02:48:52;7.83;;;6.03;;
18580;SDS011;9420;50.876;7.012;2023-09-08T02:51:20;7.20;;;6.07;;
18580;SDS011;9420;50.876;7.012;2023-09-08T02:53:47;7.83;;;5.60;;
18580;SDS011;9420;50.876;7.012;2023-09-08T02:56:16;7.70;;;5.93;;
18580;SDS011;9420;50.876;7.012;2023-09-08T02:58:42;8.83;;;5.57;;
18580;SDS011;9420;50.876;7.012;2023-09-08T03:01:09;8.00;;;6.23;;
18580;SDS011;9420;50.876;7.012;2023-09-08T03:03:38;6.40;;;5.77;;
18580;SDS011;9420;50.876;7.012;2023-09-08T03:06:05;8.40;;;5.50;;
18580;SDS011;9420;50.876;7.012;2023-09-08T03:08:33;9.70;;;6.20;;
18580;SDS011;9420;50.876;7.012;2023-09-08T03:11:02;6.87;;;6.07;;
18580;SDS011;9420;50.876;7.012;2023-09-08T03:13:29;7.67;;;5.63;;
18580;SDS011;9420;50.876;7.012;2023-09-08T03:15:55;10.90;;;6.10;;
18580;SDS011;9420;50.876;7.012;2023-09-08T03:18:22;9.57;;;5.40;;
18580;SDS011;9420;50.876;7.012;2023-09-08T03:20:49;10.53;;;5.70;;
18580;SDS011;9420;50.876;7.012;2023-09-08T03:23:15;8.47;;;5.27;;
18580;SDS011;9420;50.876;7.012;2023-09-08T03:25:43;7.17;;;5.03;;
18580;SDS011;9420;50.876;7.012;2023-09-08T03:28:10;11.00;;;5.77;;
18580;SDS011;9420;50.876;7.012;2023-09-08T03:30:37;7.93;;;5.33;;
18580;SDS011;9420;50.876;7.012;2023-09-08T03:33:04;6.17;;;5.47;;
18580;SDS011;9420;50.876;7.012;2023-09-08T03:35:30;5.97;;;5.20;;
18580;SDS011;9420;50.876;7.012;2023-09-08T03:37:57;6.23;;;4.83;;
18580;SDS011;9420;50.876;7.012;2023-09-08T03:40:24;15.47;;;6.70;;
18580;SDS011;9420;50.876;7.012;2023-09-08T03:42:52;11.27;;;5.47;;
18580;SDS011;9420;50.876;7.012;2023-09-08T03:45:18;5.73;;;5.13;;
18580;SDS011;9420;50.876;7.012;2023-09-08T03:47:45;7.97;;;6.17;;
18580;SDS011;9420;50.876;7.012;2023-09-08T03:50:12;7.00;;;5.67;;
18580;SDS011;9420;50.876;7.012;2023-09-08T03:52:39;7.43;;;5.40;;
18580;SDS011;9420;50.876;7.012;2023-09-08T03:55:06;9.77;;;5.73;;
18580;SDS011;9420;50.876;7.012;2023-09-08T03:57:32;8.77;;;5.73;;
18580;SDS011;9420;50.876;7.012;2023-09-08T04:00:00;7.80;;;5.97;;
18580;SDS011;9420;50.876;7.012;2023-09-08T04:02:29;7.30;;;5.60;;
18580;SDS011;9420;50.876;7.012;2023-09-08T04:04:56;7.77;;;5.40;;
18580;SDS011;9420;50.876;7.012;2023-09-08T04:07:22;6.13;;;5.20;;
18580;SDS011;9420;50.876;7.012;2023-09-08T04:09:49;8.93;;;5.70;;
18580;SDS011;9420;50.876;7.012;2023-09-08T04:12:16;10.03;;;5.97;;
18580;SDS011;9420;50.876;7.012;2023-09-08T04:14:43;10.30;;;6.30;;
18580;SDS011;9420;50.876;7.012;2023-09-08T04:17:11;10.07;;;6.03;;
18580;SDS011;9420;50.876;7.012;2023-09-08T04:19:38;7.83;;;5.07;;
18580;SDS011;9420;50.876;7.012;2023-09-08T04:22:04;7.80;;;5.63;;
18580;SDS011;9420;50.876;7.012;2023-09-08T04:24:34;7.97;;;5.90;;
18580;SDS011;9420;50.876;7.012;2023-09-08T04:27:01;7.67;;;6.57;;
18580;SDS011;9420;50.876;7.012;2023-09-08T04:29:28;8.23;;;5.77;;
18580;SDS011;9420;50.876;7.012;2023-09-08T04:31:54;7.33;;;5.77;;
18580;SDS011;9420;50.876;7.012;2023-09-08T04:34:22;7.20;;;6.03;;
18580;SDS011;9420;50.876;7.012;2023-09-08T04:36:49;7.80;;;5.23;;
18580;SDS011;9420;50.876;7.012;2023-09-08T04:39:15;7.10;;;6.07;;
18580;SDS011;9420;50.876;7.012;2023-09-08T04:41:42;7.47;;;5.90;;
18580;SDS011;9420;50.876;7.012;2023-09-08T04:44:09;8.80;;;6.23;;
18580;SDS011;9420;50.876;7.012;2023-09-08T04:46:35;6.47;;;5.63;;
18580;SDS011;9420;50.876;7.012;2023-09-08T04:49:02;10.30;;;6.37;;
18580;SDS011;9420;50.876;7.012;2023-09-08T04:51:30;7.27;;;5.23;;
18580;SDS011;9420;50.876;7.012;2023-09-08T04:53:56;5.80;;;4.83;;
18580;SDS011;9420;50.876;7.012;2023-09-08T04:56:23;8.63;;;5.70;;
18580;SDS011;9420;50.876;7.012;2023-09-08T04:58:49;9.00;;;6.40;;
18580;SDS011;9420;50.876;7.012;2023-09-08T05:01:17;8.53;;;6.27;;
18580;SDS011;9420;50.876;7.012;2023-09-08T05:03:44;9.33;;;6.33;;
18580;SDS011;9420;50.876;7.012;2023-09-08T05:06:10;8.63;;;5.80;;
18580;SDS011;9420;50.876;7.012;2023-09-08T05:08:40;8.57;;;5.20;;
18580;SDS011;9420;50.876;7.012;2023-09-08T05:11:06;6.70;;;5.97;;
18580;SDS011;9420;50.876;7.012;2023-09-08T05:13:34;7.70;;;5.47;;
18580;SDS011;9420;50.876;7.012;2023-09-08T05:16:00;11.27;;;6.03;;
18580;SDS011;9420;50.876;7.012;2023-09-08T05:18:36;6.53;;;5.40;;
18580;SDS011;9420;50.876;7.012;2023-09-08T05:21:03;8.77;;;5.50;;
18580;SDS011;9420;50.876;7.012;2023-09-08T05:23:30;7.23;;;5.80;;
18580;SDS011;9420;50.876;7.012;2023-09-08T05:25:58;10.80;;;5.93;;
18580;SDS011;9420;50.876;7.012;2023-09-08T05:28:25;6.30;;;5.63;;
18580;SDS011;9420;50.876;7.012;2023-09-08T05:30:52;8.23;;;5.27;;
18580;SDS011;9420;50.876;7.012;2023-09-08T05:33:19;7.63;;;5.60;;
18580;SDS011;9420;50.876;7.012;2023-09-08T05:35:46;10.27;;;5.53;;
18580;SDS011;9420;50.876;7.012;2023-09-08T05:38:13;7.67;;;6.13;;
18580;SDS011;9420;50.876;7.012;2023-09-08T05:40:40;12.27;;;6.07;;
18580;SDS011;9420;50.876;7.012;2023-09-08T05:43:08;9.47;;;6.27;;
18580;SDS011;9420;50.876;7.012;2023-09-08T05:45:35;11.17;;;6.67;;
18580;SDS011;9420;50.876;7.012;2023-09-08T05:48:01;10.20;;;5.73;;
18580;SDS011;9420;50.876;7.012;2023-09-08T05:50:29;12.20;;;6.07;;
18580;SDS011;9420;50.876;7.012;2023-09-08T05:52:55;10.77;;;6.10;;
18580;SDS011;9420;50.876;7.012;2023-09-08T05:55:22;8.23;;;5.87;;
18580;SDS011;9420;50.876;7.012;2023-09-08T05:57:48;9.27;;;5.10;;
18580;SDS011;9420;50.876;7.012;2023-09-08T06:00:17;9.43;;;5.20;;
18580;SDS011;9420;50.876;7.012;2023-09-08T06:02:44;9.40;;;4.53;;
18580;SDS011;9420;50.876;7.012;2023-09-08T06:05:11;9.30;;;6.47;;
18580;SDS011;9420;50.876;7.012;2023-09-08T06:07:38;5.47;;;4.77;;
18580;SDS011;9420;50.876;7.012;2023-09-08T06:10:05;8.17;;;5.47;;
18580;SDS011;9420;50.876;7.012;2023-09-08T06:12:32;14.77;;;5.50;;
18580;SDS011;9420;50.876;7.012;2023-09-08T06:14:59;7.30;;;5.30;;
18580;SDS011;9420;50.876;7.012;2023-09-08T06:17:27;8.30;;;5.83;;
18580;SDS011;9420;50.876;7.012;2023-09-08T06:19:53;6.30;;;5.00;;
18580;SDS011;9420;50.876;7.012;2023-09-08T06:22:20;9.10;;;5.40;;
18580;SDS011;9420;50.876;7.012;2023-09-08T06:24:46;7.37;;;4.70;;
18580;SDS011;9420;50.876;7.012;2023-09-08T06:27:13;8.33;;;4.93;;
18580;SDS011;9420;50.876;7.012;2023-09-08T06:29:40;6.93;;;5.23;;
18580;SDS011;9420;50.876;7.012;2023-09-08T06:32:08;8.90;;;5.37;;
18580;SDS011;9420;50.876;7.012;2023-09-08T06:34:37;7.53;;;5.33;;
18580;SDS011;9420;50.876;7.012;2023-09-08T06:37:04;8.73;;;5.87;;
18580;SDS011;9420;50.876;7.012;2023-09-08T06:39:30;5.97;;;4.97;;
18580;SDS011;9420;50.876;7.012;2023-09-08T06:41:57;6.70;;;4.13;;
18580;SDS011;9420;50.876;7.012;2023-09-08T06:44:24;6.53;;;4.73;;
18580;SDS011;9420;50.876;7.012;2023-09-08T06:46:51;6.30;;;4.43;;
18580;SDS011;9420;50.876;7.012;2023-09-08T06:49:17;9.23;;;5.20;;
18580;SDS011;9420;50.876;7.012;2023-09-08T06:51:45;8.07;;;4.87;;
18580;SDS011;9420;50.876;7.012;2023-09-08T06:54:14;5.53;;;4.77;;
18580;SDS011;9420;50.876;7.012;2023-09-08T06:56:40;10.60;;;5.40;;
18580;SDS011;9420;50.876;7.012;2023-09-08T06:59:07;6.87;;;5.03;;
18580;SDS011;9420;50.876;7.012;2023-09-08T07:01:33;7.30;;;4.77;;
18580;SDS011;9420;50.876;7.012;2023-09-08T07:04:01;8.10;;;5.13;;
18580;SDS011;9420;50.876;7.012;2023-09-08T07:06:27;6.40;;;4.30;;
18580;SDS011;9420;50.876;7.012;2023-09-08T07:08:55;9.00;;;4.90;;
18580;SDS011;9420;50.876;7.012;2023-09-08T07:11:22;8.10;;;4.50;;
18580;SDS011;9420;50.876;7.012;2023-09-08T07:13:49;10.70;;;4.80;;
18580;SDS011;9420;50.876;7.012;2023-09-08T07:16:15;8.50;;;5.03;;
18580;SDS011;9420;50.876;7.012;2023-09-08T07:18:42;7.60;;;4.60;;
18580;SDS011;9420;50.876;7.012;2023-09-08T07:21:08;9.50;;;4.27;;
18580;SDS011;9420;50.876;7.012;2023-09-08T07:23:35;6.87;;;4.50;;
18580;SDS011;9420;50.876;7.012;2023-09-08T07:26:04;6.57;;;4.37;;
18580;SDS011;9420;50.876;7.012;2023-09-08T07:28:31;6.73;;;4.80;;
18580;SDS011;9420;50.876;7.012;2023-09-08T07:31:00;7.33;;;3.67;;
18580;SDS011;9420;50.876;7.012;2023-09-08T07:33:26;11.73;;;4.60;;
18580;SDS011;9420;50.876;7.012;2023-09-08T07:35:52;7.00;;;4.43;;
18580;SDS011;9420;50.876;7.012;2023-09-08T07:38:19;8.00;;;4.73;;
18580;SDS011;9420;50.876;7.012;2023-09-08T07:40:44;6.90;;;4.80;;
18580;SDS011;9420;50.876;7.012;2023-09-08T07:43:12;12.60;;;5.07;;
18580;SDS011;9420;50.876;7.012;2023-09-08T07:45:39;11.80;;;5.43;;
18580;SDS011;9420;50.876;7.012;2023-09-08T07:48:06;12.67;;;5.13;;
18580;SDS011;9420;50.876;7.012;2023-09-08T07:50:32;18.33;;;6.00;;
18580;SDS011;9420;50.876;7.012;2023-09-08T07:52:59;16.93;;;5.50;;
18580;SDS011;9420;50.876;7.012;2023-09-08T07:55:26;15.80;;;5.60;;
18580;SDS011;9420;50.876;7.012;2023-09-08T07:57:54;12.23;;;5.67;;
18580;SDS011;9420;50.876;7.012;2023-09-08T08:00:23;13.17;;;5.23;;
18580;SDS011;9420;50.876;7.012;2023-09-08T08:02:53;9.47;;;4.77;;
18580;SDS011;9420;50.876;7.012;2023-09-08T08:05:20;9.30;;;4.57;;
18580;SDS011;9420;50.876;7.012;2023-09-08T08:07:47;7.13;;;5.07;;
18580;SDS011;9420;50.876;7.012;2023-09-08T08:10:15;8.33;;;4.43;;
18580;SDS011;9420;50.876;7.012;2023-09-08T08:12:42;5.77;;;4.30;;
18580;SDS011;9420;50.876;7.012;2023-09-08T08:15:09;4.87;;;3.70;;
18580;SDS011;9420;50.876;7.012;2023-09-08T08:17:38;6.50;;;4.18;;
18580;SDS011;9420;50.876;7.012;2023-09-08T08:20:06;5.67;;;3.60;;
18580;SDS011;9420;50.876;7.012;2023-09-08T08:22:35;5.80;;;4.10;;
18580;SDS011;9420;50.876;7.012;2023-09-08T08:25:02;5.93;;;3.58;;
18580;SDS011;9420;50.876;7.012;2023-09-08T08:27:29;5.03;;;3.80;;
18580;SDS011;9420;50.876;7.012;2023-09-08T08:29:56;8.13;;;3.90;;
18580;SDS011;9420;50.876;7.012;2023-09-08T08:32:24;10.18;;;4.15;;
18580;SDS011;9420;50.876;7.012;2023-09-08T08:34:52;5.70;;;3.30;;
18580;SDS011;9420;50.876;7.012;2023-09-08T08:37:19;4.57;;;3.97;;
18580;SDS011;9420;50.876;7.012;2023-09-08T08:39:46;7.90;;;4.30;;
18580;SDS011;9420;50.876;7.012;2023-09-08T08:42:12;10.40;;;3.90;;
18580;SDS011;9420;50.876;7.012;2023-09-08T08:44:39;5.20;;;3.95;;
18580;SDS011;9420;50.876;7.012;2023-09-08T08:47:08;4.30;;;3.90;;
18580;SDS011;9420;50.876;7.012;2023-09-08T08:49:37;7.63;;;3.97;;
18580;SDS011;9420;50.876;7.012;2023-09-08T08:52:09;5.78;;;3.70;;
18580;SDS011;9420;50.876;7.012;2023-09-08T08:54:38;8.30;;;4.28;;
18580;SDS011;9420;50.876;7.012;2023-09-08T08:57:05;4.70;;;3.50;;
18580;SDS011;9420;50.876;7.012;2023-09-08T08:59:33;4.68;;;3.70;;
18580;SDS011;9420;50.876;7.012;2023-09-08T09:01:59;6.53;;;4.20;;
18580;SDS011;9420;50.876;7.012;2023-09-08T09:04:28;4.78;;;3.80;;
18580;SDS011;9420;50.876;7.012;2023-09-08T09:06:55;5.97;;;4.03;;
18580;SDS011;9420;50.876;7.012;2023-09-08T09:09:23;5.60;;;4.28;;
18580;SDS011;9420;50.876;7.012;2023-09-08T09:11:51;8.15;;;4.35;;
18580;SDS011;9420;50.876;7.012;2023-09-08T09:14:17;6.68;;;3.75;;
18580;SDS011;9420;50.876;7.012;2023-09-08T09:16:44;9.65;;;4.00;;
18580;SDS011;9420;50.876;7.012;2023-09-08T09:19:17;5.47;;;3.70;;
18580;SDS011;9420;50.876;7.012;2023-09-08T09:21:50;8.93;;;5.00;;
18580;SDS011;9420;50.876;7.012;2023-09-08T09:24:29;6.30;;;4.60;;
18580;SDS011;9420;50.876;7.012;2023-09-08T09:26:58;5.15;;;4.13;;
18580;SDS011;9420;50.876;7.012;2023-09-08T09:29:26;7.22;;;4.18;;
18580;SDS011;9420;50.876;7.012;2023-09-08T09:31:54;8.40;;;3.97;;
18580;SDS011;9420;50.876;7.012;2023-09-08T09:34:22;6.90;;;4.43;;
18580;SDS011;9420;50.876;7.012;2023-09-08T09:36:49;6.90;;;4.28;;
18580;SDS011;9420;50.876;7.012;2023-09-08T09:39:17;8.60;;;4.85;;
18580;SDS011;9420;50.876;7.012;2023-09-08T09:41:46;6.25;;;4.25;;
18580;SDS011;9420;50.876;7.012;2023-09-08T09:44:13;4.65;;;3.85;;
18580;SDS011;9420;50.876;7.012;2023-09-08T09:46:42;5.25;;;4.18;;
18580;SDS011;9420;50.876;7.012;2023-09-08T09:49:10;5.22;;;4.07;;
18580;SDS011;9420;50.876;7.012;2023-09-08T09:51:42;5.00;;;4.35;;
18580;SDS011;9420;50.876;7.012;2023-09-08T09:54:09;4.63;;;4.07;;
18580;SDS011;9420;50.876;7.012;2023-09-08T09:56:40;9.43;;;4.28;;
18580;SDS011;9420;50.876;7.012;2023-09-08T09:59:09;9.68;;;4.03;;
18580;SDS011;9420;50.876;7.012;2023-09-08T10:01:38;4.38;;;3.58;;
18580;SDS011;9420;50.876;7.012;2023-09-08T10:04:07;4.57;;;3.55;;
18580;SDS011;9420;50.876;7.012;2023-09-08T10:06:36;4.38;;;3.97;;
18580;SDS011;9420;50.876;7.012;2023-09-08T10:09:06;5.72;;;3.50;;
18580;SDS011;9420;50.876;7.012;2023-09-08T10:11:47;4.50;;;3.90;;
18580;SDS011;9420;50.876;7.012;2023-09-08T10:14:17;5.43;;;3.70;;
18580;SDS011;9420;50.876;7.012;2023-09-08T10:16:44;5.53;;;3.60;;
18580;SDS011;9420;50.876;7.012;2023-09-08T10:19:14;4.40;;;3.38;;
18580;SDS011;9420;50.876;7.012;2023-09-08T10:21:42;5.00;;;3.55;;
18580;SDS011;9420;50.876;7.012;2023-09-08T10:24:14;4.72;;;3.47;;
18580;SDS011;9420;50.876;7.012;2023-09-08T10:26:43;4.38;;;3.72;;
18580;SDS011;9420;50.876;7.012;2023-09-08T10:29:11;5.18;;;3.15;;
18580;SDS011;9420;50.876;7.012;2023-09-08T10:31:39;7.78;;;3.25;;
18580;SDS011;9420;50.876;7.012;2023-09-08T10:34:07;5.80;;;3.53;;
18580;SDS011;9420;50.876;7.012;2023-09-08T10:36:34;6.47;;;3.20;;
18580;SDS011;9420;50.876;7.012;2023-09-08T10:42:20;5.13;;;3.67;;
18580;SDS011;9420;50.876;7.012;2023-09-08T10:45:01;5.05;;;3.35;;
18580;SDS011;9420;50.876;7.012;2023-09-08T10:47:33;8.48;;;3.63;;
18580;SDS011;9420;50.876;7.012;2023-09-08T10:50:08;6.03;;;3.30;;
18580;SDS011;9420;50.876;7.012;2023-09-08T10:52:42;5.60;;;3.05;;
18580;SDS011;9420;50.876;7.012;2023-09-08T10:55:08;8.25;;;4.13;;
18580;SDS011;9420;50.876;7.012;2023-09-08T10:57:37;6.72;;;3.15;;
18580;SDS011;9420;50.876;7.012;2023-09-08T11:00:04;4.72;;;3.45;;
18580;SDS011;9420;50.876;7.012;2023-09-08T11:02:38;3.63;;;3.28;;
18580;SDS011;9420;50.876;7.012;2023-09-08T11:05:07;5.80;;;3.28;;
18580;SDS011;9420;50.876;7.012;2023-09-08T11:07:35;3.33;;;3.03;;
18580;SDS011;9420;50.876;7.012;2023-09-08T11:10:02;5.72;;;3.00;;
18580;SDS011;9420;50.876;7.012;2023-09-08T11:12:29;7.38;;;3.58;;
18580;SDS011;9420;50.876;7.012;2023-09-08T11:14:56;4.82;;;3.33;;
18580;SDS011;9420;50.876;7.012;2023-09-08T11:17:25;3.28;;;2.97;;
18580;SDS011;9420;50.876;7.012;2023-09-08T11:19:54;5.25;;;3.55;;
18580;SDS011;9420;50.876;7.012;2023-09-08T11:22:21;8.88;;;3.20;;
18580;SDS011;9420;50.876;7.012;2023-09-08T11:24:50;3.38;;;2.95;;
18580;SDS011;9420;50.876;7.012;2023-09-08T11:27:18;5.50;;;3.17;;
18580;SDS011;9420;50.876;7.012;2023-09-08T11:29:49;3.80;;;2.95;;
18580;SDS011;9420;50.876;7.012;2023-09-08T11:32:21;3.35;;;2.88;;
18580;SDS011;9420;50.876;7.012;2023-09-08T11:34:48;3.33;;;3.03;;
18580;SDS011;9420;50.876;7.012;2023-09-08T11:37:20;4.05;;;2.80;;
18580;SDS011;9420;50.876;7.012;2023-09-08T11:39:46;6.70;;;3.58;;
18580;SDS011;9420;50.876;7.012;2023-09-08T11:42:14;4.68;;;3.35;;
18580;SDS011;9420;50.876;7.012;2023-09-08T11:44:41;3.42;;;3.13;;
18580;SDS011;9420;50.876;7.012;2023-09-08T11:47:09;2.97;;;2.70;;
18580;SDS011;9420;50.876;7.012;2023-09-08T11:49:37;3.53;;;2.58;;
18580;SDS011;9420;50.876;7.012;2023-09-08T11:52:05;5.03;;;3.25;;
18580;SDS011;9420;50.876;7.012;2023-09-08T11:54:34;4.07;;;3.15;;
18580;SDS011;9420;50.876;7.012;2023-09-08T11:57:03;3.33;;;2.78;;
18580;SDS011;9420;50.876;7.012;2023-09-08T11:59:33;3.75;;;3.15;;
18580;SDS011;9420;50.876;7.012;2023-09-08T12:02:01;2.83;;;2.63;;
18580;SDS011;9420;50.876;7.012;2023-09-08T12:04:27;3.28;;;2.97;;
18580;SDS011;9420;50.876;7.012;2023-09-08T12:06:54;3.53;;;2.58;;
18580;SDS011;9420;50.876;7.012;2023-09-08T12:09:21;5.13;;;3.50;;
18580;SDS011;9420;50.876;7.012;2023-09-08T12:11:50;5.45;;;3.38;;
18580;SDS011;9420;50.876;7.012;2023-09-08T12:14:17;2.92;;;2.72;;
18580;SDS011;9420;50.876;7.012;2023-09-08T12:16:43;8.43;;;3.25;;
18580;SDS011;9420;50.876;7.012;2023-09-08T12:21:56;3.58;;;2.90;;
18580;SDS011;9420;50.876;7.012;2023-09-08T12:27:25;3.03;;;2.78;;
18580;SDS011;9420;50.876;7.012;2023-09-08T12:29:53;3.95;;;3.50;;
18580;SDS011;9420;50.876;7.012;2023-09-08T12:32:20;4.00;;;3.05;;
18580;SDS011;9420;50.876;7.012;2023-09-08T12:34:49;3.20;;;2.90;;
18580;SDS011;9420;50.876;7.012;2023-09-08T12:37:19;3.35;;;2.75;;
18580;SDS011;9420;50.876;7.012;2023-09-08T12:39:47;4.97;;;2.90;;
18580;SDS011;9420;50.876;7.012;2023-09-08T12:42:13;3.92;;;2.90;;
18580;SDS011;9420;50.876;7.012;2023-09-08T12:44:41;3.90;;;3.50;;
18580;SDS011;9420;50.876;7.012;2023-09-08T12:47:09;4.90;;;3.25;;
18580;SDS011;9420;50.876;7.012;2023-09-08T12:49:37;3.20;;;2.90;;
18580;SDS011;9420;50.876;7.012;2023-09-08T12:52:04;3.05;;;2.78;;
18580;SDS011;9420;50.876;7.012;2023-09-08T12:54:32;3.20;;;2.90;;
18580;SDS011;9420;50.876;7.012;2023-09-08T12:56:59;3.80;;;3.40;;
18580;SDS011;9420;50.876;7.012;2023-09-08T12:59:25;9.85;;;3.42;;
18580;SDS011;9420;50.876;7.012;2023-09-08T13:01:54;6.68;;;2.83;;
18580;SDS011;9420;50.876;7.012;2023-09-08T13:04:23;4.53;;;2.70;;
18580;SDS011;9420;50.876;7.012;2023-09-08T13:06:49;4.05;;;2.97;;
18580;SDS011;9420;50.876;7.012;2023-09-08T13:09:16;4.30;;;2.90;;
18580;SDS011;9420;50.876;7.012;2023-09-08T13:11:43;3.10;;;2.80;;
18580;SDS011;9420;50.876;7.012;2023-09-08T13:14:09;2.70;;;2.47;;
18580;SDS011;9420;50.876;7.012;2023-09-08T13:16:36;6.97;;;3.00;;
18580;SDS011;9420;50.876;7.012;2023-09-08T13:19:04;3.63;;;2.80;;
18580;SDS011;9420;50.876;7.012;2023-09-08T13:21:30;2.58;;;2.38;;
18580;SDS011;9420;50.876;7.012;2023-09-08T13:23:57;3.97;;;3.08;;
18580;SDS011;9420;50.876;7.012;2023-09-08T13:26:24;3.80;;;3.17;;
18580;SDS011;9420;50.876;7.012;2023-09-08T13:28:50;4.60;;;3.10;;
18580;SDS011;9420;50.876;7.012;2023-09-08T13:31:17;7.18;;;2.80;;
18580;SDS011;9420;50.876;7.012;2023-09-08T13:33:44;3.33;;;3.00;;
18580;SDS011;9420;50.876;7.012;2023-09-08T13:36:12;4.47;;;2.70;;
18580;SDS011;9420;50.876;7.012;2023-09-08T13:38:39;7.68;;;3.17;;
18580;SDS011;9420;50.876;7.012;2023-09-08T13:41:05;6.00;;;3.63;;
18580;SDS011;9420;50.876;7.012;2023-09-08T13:43:32;3.60;;;2.85;;
18580;SDS011;9420;50.876;7.012;2023-09-08T13:45:58;3.38;;;3.08;;
18580;SDS011;9420;50.876;7.012;2023-09-08T13:48:25;4.28;;;3.13;;
18580;SDS011;9420;50.876;7.012;2023-09-08T13:50:52;3.17;;;2.88;;
18580;SDS011;9420;50.876;7.012;2023-09-08T13:53:21;4.53;;;2.88;;
18580;SDS011;9420;50.876;7.012;2023-09-08T13:55:47;4.95;;;3.20;;
18580;SDS011;9420;50.876;7.012;2023-09-08T13:58:14;3.63;;;2.95;;
18580;SDS011;9420;50.876;7.012;2023-09-08T14:00:41;3.60;;;3.30;;
18580;SDS011;9420;50.876;7.012;2023-09-08T14:03:07;5.47;;;2.65;;
18580;SDS011;9420;50.876;7.012;2023-09-08T14:05:34;3.38;;;2.72;;
18580;SDS011;9420;50.876;7.012;2023-09-08T14:08:01;8.35;;;3.17;;
18580;SDS011;9420;50.876;7.012;2023-09-08T14:10:29;5.13;;;3.22;;
18580;SDS011;9420;50.876;7.012;2023-09-08T14:12:55;4.43;;;2.95;;
18580;SDS011;9420;50.876;7.012;2023-09-08T14:15:22;3.08;;;2.80;;
18580;SDS011;9420;50.876;7.012;2023-09-08T14:17:49;3.45;;;2.85;;
18580;SDS011;9420;50.876;7.012;2023-09-08T14:20:17;3.60;;;2.78;;
18580;SDS011;9420;50.876;7.012;2023-09-08T14:22:43;3.45;;;3.10;;
18580;SDS011;9420;50.876;7.012;2023-09-08T14:25:10;4.03;;;3.10;;
18580;SDS011;9420;50.876;7.012;2023-09-08T14:27:38;2.72;;;2.45;;
18580;SDS011;9420;50.876;7.012;2023-09-08T14:30:05;3.17;;;2.88;;
18580;SDS011;9420;50.876;7.012;2023-09-08T14:32:33;2.95;;;2.65;;
18580;SDS011;9420;50.876;7.012;2023-09-08T14:34:59;4.05;;;2.60;;
18580;SDS011;9420;50.876;7.012;2023-09-08T14:37:26;3.72;;;3.00;;
18580;SDS011;9420;50.876;7.012;2023-09-08T14:39:52;3.22;;;2.72;;
18580;SDS011;9420;50.876;7.012;2023-09-08T14:42:19;3.92;;;2.80;;
18580;SDS011;9420;50.876;7.012;2023-09-08T14:44:47;3.17;;;2.88;;
18580;SDS011;9420;50.876;7.012;2023-09-08T14:47:16;4.05;;;2.80;;
18580;SDS011;9420;50.876;7.012;2023-09-08T14:49:43;3.78;;;3.35;;
18580;SDS011;9420;50.876;7.012;2023-09-08T14:52:09;5.00;;;2.63;;
18580;SDS011;9420;50.876;7.012;2023-09-08T14:54:36;2.95;;;2.67;;
18580;SDS011;9420;50.876;7.012;2023-09-08T14:57:03;2.63;;;2.42;;
18580;SDS011;9420;50.876;7.012;2023-09-08T14:59:30;2.55;;;2.35;;
18580;SDS011;9420;50.876;7.012;2023-09-08T15:01:58;3.38;;;2.75;;
18580;SDS011;9420;50.876;7.012;2023-09-08T15:04:24;4.63;;;3.33;;
18580;SDS011;9420;50.876;7.012;2023-09-08T15:06:51;4.95;;;3.08;;
18580;SDS011;9420;50.876;7.012;2023-09-08T15:09:17;4.20;;;3.05;;
18580;SDS011;9420;50.876;7.012;2023-09-08T15:11:44;5.40;;;3.28;;
18580;SDS011;9420;50.876;7.012;2023-09-08T15:14:12;3.60;;;2.95;;